Time;durP1;ratioP1;P1;durP2;ratioP2;P2;SDS_P1;SDS_P2;PMS_P1;PMS_P2;Temp;Humidity;BMP_temperature;BMP_pressure;BME280_temperature;BME280_humidity;BME280_pressure;Samples;Min_cycle;Max_cycle;Signal;HPM_P1;HPM_P2
2022/08/22 00:02:04;;;;;;;7.47;5.57;;;17.80;99.90;;;;;;5003832;28;20256;-67
2022/08/22 00:04:47;;;;;;;7.60;5.73;;;17.70;99.90;;;;;;4985001;28;20217;-68
2022/08/22 00:07:50;;;;;;;5.77;5.23;;;17.60;99.90;;;;;;5057097;28;20208;-68
2022/08/22 00:10:23;;;;;;;9.47;5.50;;;17.50;99.90;;;;;;5049657;28;20201;-68
2022/08/22 00:12:57;;;;;;;6.03;5.23;;;17.30;99.90;;;;;;5046422;28;20212;-66
2022/08/22 00:15:38;;;;;;;6.17;5.57;;;17.20;99.90;;;;;;5048535;28;20182;-66
2022/08/22 00:18:30;;;;;;;7.53;4.97;;;17.20;99.90;;;;;;5059297;28;20194;-66
2022/08/22 00:21:14;;;;;;;7.57;5.87;;;17.10;99.90;;;;;;5048411;28;20166;-66
2022/08/22 00:24:03;;;;;;;6.23;5.10;;;17.10;99.90;;;;;;5065445;28;20240;-67
2022/08/22 00:26:41;;;;;;;7.40;5.53;;;17.00;99.90;;;;;;5047302;28;20235;-67
2022/08/22 00:29:12;;;;;;;7.30;5.53;;;17.00;99.90;;;;;;5048074;28;20196;-67
2022/08/22 00:31:47;;;;;;;6.90;5.77;;;16.90;99.90;;;;;;5046261;28;20196;-67
2022/08/22 00:34:49;;;;;;;8.33;6.30;;;16.90;99.90;;;;;;5068045;28;20203;-67
2022/08/22 00:37:38;;;;;;;6.57;5.23;;;16.80;99.90;;;;;;5017646;28;20631;-68
2022/08/22 00:40:25;;;;;;;8.47;5.63;;;16.80;99.90;;;;;;5048129;28;20184;-67
2022/08/22 00:43:07;;;;;;;7.17;6.30;;;16.70;99.90;;;;;;5065355;28;20206;-67
2022/08/22 00:46:02;;;;;;;8.73;5.73;;;16.70;99.90;;;;;;5048111;28;20638;-66
2022/08/22 00:48:55;;;;;;;6.83;5.13;;;16.70;99.90;;;;;;5060916;28;20208;-67
2022/08/22 00:51:45;;;;;;;8.80;5.60;;;16.70;99.90;;;;;;5057068;28;20228;-66
2022/08/22 00:54:18;;;;;;;9.43;5.80;;;16.80;99.90;;;;;;5047933;28;20245;-66
2022/08/22 00:57:01;;;;;;;7.43;5.77;;;16.70;99.90;;;;;;5046381;28;20245;-66
2022/08/22 00:59:50;;;;;;;6.33;4.37;;;16.70;99.90;;;;;;5067954;28;20176;-66
2022/08/22 01:02:37;;;;;;;7.50;5.43;;;16.70;99.90;;;;;;5050873;28;20544;-68
2022/08/22 01:05:02;;;;;;;6.30;5.33;;;16.60;99.90;;;;;;5067901;28;20180;-69
2022/08/22 01:07:49;;;;;;;6.60;5.47;;;16.60;99.90;;;;;;5046759;28;20784;-71
2022/08/22 01:11:04;;;;;;;5.37;4.93;;;16.60;99.90;;;;;;5048006;28;20179;-68
2022/08/22 01:13:55;;;;;;;9.77;5.80;;;16.50;99.90;;;;;;5059230;28;20714;-66
2022/08/22 01:16:33;;;;;;;6.60;4.57;;;16.50;99.90;;;;;;5066581;28;20242;-66
2022/08/22 01:19:42;;;;;;;6.93;5.03;;;16.40;99.90;;;;;;5065088;28;20619;-67
2022/08/22 01:22:25;;;;;;;5.37;4.87;;;16.30;99.90;;;;;;5062755;28;20196;-67
2022/08/22 01:25:27;;;;;;;7.07;5.13;;;16.30;99.90;;;;;;5064607;28;20601;-66
2022/08/22 01:28:26;;;;;;;6.33;5.00;;;16.30;99.90;;;;;;5054732;28;20198;-66
2022/08/22 01:31:20;;;;;;;5.60;5.10;;;16.20;99.90;;;;;;5047683;28;20261;-63
2022/08/22 01:34:15;;;;;;;6.33;5.43;;;16.30;99.90;;;;;;5061685;28;20677;-63
2022/08/22 01:37:00;;;;;;;6.53;5.73;;;16.30;99.90;;;;;;5047339;28;20181;-68
2022/08/22 01:39:40;;;;;;;6.10;4.83;;;16.20;99.90;;;;;;5066750;28;20187;-70
2022/08/22 01:42:43;;;;;;;5.97;5.27;;;16.20;99.90;;;;;;5066161;28;20972;-66
2022/08/22 01:45:35;;;;;;;5.90;5.40;;;16.10;99.90;;;;;;5071011;28;20244;-67
2022/08/22 01:48:22;;;;;;;7.60;5.20;;;16.10;99.90;;;;;;5058802;28;20206;-67
2022/08/22 01:50:53;;;;;;;7.80;5.43;;;16.00;99.90;;;;;;5056259;28;20191;-65
2022/08/22 01:53:28;;;;;;;9.00;5.17;;;15.90;99.90;;;;;;5068733;28;20288;-66
2022/08/22 01:56:09;;;;;;;8.47;5.60;;;15.90;99.90;;;;;;5050951;28;20233;-68
2022/08/22 01:58:37;;;;;;;6.37;5.20;;;15.90;99.90;;;;;;5062959;28;20212;-69
2022/08/22 02:01:32;;;;;;;8.17;5.33;;;15.90;99.90;;;;;;5070847;28;20186;-66
2022/08/22 02:04:08;;;;;;;8.17;5.67;;;15.90;99.90;;;;;;5065965;28;20582;-66
2022/08/22 02:06:57;;;;;;;9.90;5.40;;;15.90;99.90;;;;;;5050667;28;20299;-66
2022/08/22 02:09:36;;;;;;;6.10;5.60;;;15.90;99.90;;;;;;5050789;28;20248;-66
2022/08/22 02:12:04;;;;;;;5.30;4.80;;;15.90;99.90;;;;;;5049474;28;20183;-65
2022/08/22 02:14:51;;;;;;;5.60;5.10;;;15.90;99.90;;;;;;5070350;28;20213;-65
2022/08/22 02:17:26;;;;;;;5.80;5.30;;;15.90;99.90;;;;;;5051405;28;20195;-65
2022/08/22 02:20:23;;;;;;;6.30;4.50;;;15.80;99.90;;;;;;5070233;28;20183;-65
2022/08/22 02:23:26;;;;;;;7.50;5.40;;;15.80;99.90;;;;;;5055095;28;20196;-65
2022/08/22 02:26:01;;;;;;;7.00;5.50;;;15.80;99.90;;;;;;5070214;28;20197;-65
2022/08/22 02:28:45;;;;;;;7.40;5.27;;;15.80;99.90;;;;;;5060950;28;20572;-66
2022/08/22 02:31:18;;;;;;;6.00;5.20;;;15.80;99.90;;;;;;5050361;28;20190;-66
2022/08/22 02:33:44;;;;;;;5.80;5.33;;;15.70;99.90;;;;;;5062406;28;20716;-66
2022/08/22 02:36:45;;;;;;;8.43;5.47;;;15.70;99.90;;;;;;5070030;28;20320;-67
2022/08/22 02:39:38;;;;;;;7.27;6.30;;;15.70;99.90;;;;;;5064119;28;20281;-66
2022/08/22 02:42:22;;;;;;;8.03;6.47;;;15.70;99.90;;;;;;5048402;28;20186;-66
2022/08/22 02:45:11;;;;;;;8.77;5.60;;;15.70;99.90;;;;;;5069758;28;20735;-66
2022/08/22 02:48:02;;;;;;;6.03;5.47;;;15.70;99.90;;;;;;5052807;28;20582;-66
2022/08/22 02:50:36;;;;;;;7.47;5.33;;;15.70;99.90;;;;;;5065470;28;20238;-67
2022/08/22 02:53:43;;;;;;;6.47;5.47;;;15.70;99.90;;;;;;5047935;28;20209;-66
2022/08/22 02:56:15;;;;;;;7.87;5.70;;;15.70;99.90;;;;;;5007416;28;20485;-66
2022/08/22 02:58:52;;;;;;;7.00;5.50;;;15.60;99.90;;;;;;4979331;28;20201;-68
2022/08/22 03:01:27;;;;;;;8.60;5.93;;;15.60;99.90;;;;;;5028815;28;20206;-68
2022/08/22 03:04:15;;;;;;;8.67;5.17;;;15.60;99.90;;;;;;5062960;28;20201;-68
2022/08/22 03:06:44;;;;;;;7.37;4.93;;;15.60;99.90;;;;;;5049435;28;20213;-68
2022/08/22 03:09:13;;;;;;;7.10;5.27;;;15.50;99.90;;;;;;5064235;28;20195;-68
2022/08/22 03:11:42;;;;;;;8.20;5.93;;;15.60;99.90;;;;;;5068988;28;20186;-68
2022/08/22 03:14:40;;;;;;;6.60;5.50;;;15.60;99.90;;;;;;5063976;28;20232;-68
2022/08/22 03:17:15;;;;;;;8.50;4.80;;;15.60;99.90;;;;;;5049495;28;20183;-68
2022/08/22 03:19:59;;;;;;;7.77;6.07;;;15.50;99.90;;;;;;5049217;28;20185;-63
2022/08/22 03:22:40;;;;;;;11.37;5.70;;;15.50;99.90;;;;;;5049543;28;20587;-63
2022/08/22 03:25:09;;;;;;;8.97;5.70;;;15.50;99.90;;;;;;5069471;28;20253;-66
2022/08/22 03:27:52;;;;;;;9.77;6.57;;;15.50;99.90;;;;;;5066968;28;20195;-63
2022/08/22 03:30:26;;;;;;;7.90;5.97;;;15.50;99.90;;;;;;5069238;28;20272;-63
2022/08/22 03:32:55;;;;;;;9.60;5.97;;;15.50;99.90;;;;;;5052457;28;20213;-64
2022/08/22 03:35:33;;;;;;;7.87;5.80;;;15.40;99.90;;;;;;5069169;28;20404;-64
2022/08/22 03:38:39;;;;;;;6.43;5.40;;;15.40;99.90;;;;;;5053385;28;20190;-64
2022/08/22 03:41:26;;;;;;;7.30;5.53;;;15.40;99.90;;;;;;5043500;28;20249;-64
2022/08/22 03:44:04;;;;;;;5.27;4.83;;;15.50;99.90;;;;;;5052732;28;20195;-64
2022/08/22 03:47:04;;;;;;;7.40;5.10;;;15.50;99.90;;;;;;5048892;28;20199;-64
2022/08/22 03:50:16;;;;;;;7.17;4.83;;;15.70;99.90;;;;;;5065462;28;20434;-64
2022/08/22 03:53:29;;;;;;;7.17;5.20;;;15.70;99.90;;;;;;5050140;28;20232;-64
2022/08/22 03:56:20;;;;;;;9.00;5.10;;;15.70;99.90;;;;;;5048636;28;20274;-64
2022/08/22 03:59:11;;;;;;;7.97;5.20;;;15.70;99.90;;;;;;5058819;28;20224;-63
2022/08/22 04:02:27;;;;;;;9.23;6.40;;;15.70;99.90;;;;;;5048289;28;20649;-63
2022/08/22 04:05:12;;;;;;;7.90;5.57;;;15.70;99.90;;;;;;5029318;28;20535;-63
2022/08/22 04:07:44;;;;;;;8.03;5.97;;;15.70;99.90;;;;;;5049496;28;20643;-63
2022/08/22 04:10:24;;;;;;;10.57;7.07;;;15.70;99.90;;;;;;5068505;28;20166;-63
2022/08/22 04:13:11;;;;;;;8.73;6.30;;;15.60;99.90;;;;;;5065988;28;20237;-63
2022/08/22 04:15:59;;;;;;;8.40;6.73;;;15.70;99.90;;;;;;5068097;28;20201;-63
2022/08/22 04:18:50;;;;;;;8.43;5.20;;;15.60;99.90;;;;;;5055084;28;20207;-64
2022/08/22 04:21:34;;;;;;;9.47;5.80;;;15.60;99.90;;;;;;5048346;28;20179;-64
2022/08/22 04:24:22;;;;;;;5.97;5.33;;;15.60;99.90;;;;;;5059378;28;20202;-65
2022/08/22 04:27:00;;;;;;;6.37;5.87;;;15.60;99.90;;;;;;5048059;28;20868;-64
2022/08/22 04:29:29;;;;;;;8.57;5.70;;;15.60;99.90;;;;;;5063270;28;20205;-63
2022/08/22 04:32:35;;;;;;;6.27;5.63;;;15.70;99.90;;;;;;5067874;28;20203;-63
2022/08/22 04:35:22;;;;;;;6.77;5.27;;;15.70;99.90;;;;;;5017079;28;20200;-67
2022/08/22 04:37:55;;;;;;;7.13;6.13;;;15.70;99.90;;;;;;5049174;28;20616;-65
2022/08/22 04:40:46;;;;;;;7.40;5.60;;;15.80;99.90;;;;;;5067963;28;20177;-62
2022/08/22 04:43:31;;;;;;;7.73;6.23;;;15.90;99.90;;;;;;5066089;28;20190;-63
2022/08/22 04:46:06;;;;;;;7.67;6.60;;;16.00;99.90;;;;;;5048301;28;20250;-63
2022/08/22 04:48:44;;;;;;;7.40;6.53;;;16.10;99.90;;;;;;5054562;28;20665;-63
2022/08/22 04:51:18;;;;;;;7.10;5.97;;;16.30;99.90;;;;;;5056800;28;20267;-63
2022/08/22 04:53:46;;;;;;;8.93;5.87;;;16.40;99.90;;;;;;5056154;28;20217;-63
2022/08/22 04:56:34;;;;;;;8.50;6.17;;;16.40;99.90;;;;;;5048415;28;20198;-63
2022/08/22 04:59:07;;;;;;;6.10;5.60;;;16.50;99.90;;;;;;5058057;28;20848;-64
2022/08/22 05:01:42;;;;;;;8.03;5.70;;;16.50;99.90;;;;;;5047884;28;20202;-63
2022/08/22 05:04:27;;;;;;;7.67;6.03;;;16.50;99.90;;;;;;5059376;28;20256;-63
2022/08/22 05:07:05;;;;;;;11.57;6.47;;;16.60;99.90;;;;;;5047832;28;20188;-63
2022/08/22 05:09:36;;;;;;;7.63;5.70;;;16.60;99.90;;;;;;5062289;28;20676;-64
2022/08/22 05:12:07;;;;;;;7.07;5.93;;;16.60;99.90;;;;;;5047708;28;20656;-64
2022/08/22 05:14:43;;;;;;;5.57;4.90;;;16.60;99.90;;;;;;5065489;28;20218;-63
2022/08/22 05:17:14;;;;;;;6.70;4.97;;;16.60;99.90;;;;;;5051652;28;20207;-63
2022/08/22 05:19:43;;;;;;;7.07;5.67;;;16.70;99.90;;;;;;5069291;28;20588;-63
2022/08/22 05:22:18;;;;;;;5.40;4.90;;;16.80;99.90;;;;;;5051301;28;20188;-63
2022/08/22 05:24:52;;;;;;;7.07;5.43;;;16.90;99.90;;;;;;5067111;28;20203;-62
2022/08/22 05:27:24;;;;;;;7.90;5.40;;;16.80;99.90;;;;;;5051201;28;20285;-62
2022/08/22 05:30:01;;;;;;;6.73;6.03;;;16.90;99.90;;;;;;5069037;28;20227;-63
2022/08/22 05:32:31;;;;;;;7.70;5.50;;;17.00;99.90;;;;;;5051258;28;20208;-63
2022/08/22 05:35:02;;;;;;;11.50;6.13;;;17.10;99.90;;;;;;5068038;28;20200;-63
2022/08/22 05:37:37;;;;;;;7.73;5.90;;;17.10;99.90;;;;;;5070558;28;20200;-63
2022/08/22 05:40:04;;;;;;;7.13;5.80;;;17.10;99.90;;;;;;5070464;28;20214;-63
2022/08/22 05:42:33;;;;;;;8.20;5.83;;;17.20;99.90;;;;;;5070818;28;20236;-63
2022/08/22 05:45:01;;;;;;;6.27;5.40;;;17.20;99.90;;;;;;5068095;28;20312;-63
2022/08/22 05:47:36;;;;;;;9.87;5.90;;;17.20;99.90;;;;;;5070697;28;20282;-63
2022/08/22 05:50:08;;;;;;;7.93;5.50;;;17.10;99.90;;;;;;5068183;28;20284;-62
2022/08/22 05:52:58;;;;;;;6.93;6.20;;;17.10;99.90;;;;;;5050898;28;20228;-62
2022/08/22 05:55:53;;;;;;;6.33;5.77;;;17.20;99.90;;;;;;5051081;28;20282;-63
2022/08/22 05:58:42;;;;;;;6.20;5.43;;;17.30;99.90;;;;;;5053730;28;20820;-63
2022/08/22 06:01:20;;;;;;;8.60;5.80;;;17.30;99.90;;;;;;5050591;28;20658;-63
2022/08/22 06:04:17;;;;;;;9.27;5.30;;;17.30;99.90;;;;;;5057286;28;20665;-63
2022/08/22 06:07:05;;;;;;;6.47;4.83;;;17.30;99.90;;;;;;5050385;28;20238;-61
2022/08/22 06:09:46;;;;;;;9.10;6.10;;;17.50;99.90;;;;;;5063528;28;20205;-62
2022/08/22 06:12:38;;;;;;;10.83;6.17;;;17.60;99.90;;;;;;5050428;28;20184;-65
2022/08/22 06:15:28;;;;;;;16.23;5.90;;;17.70;99.90;;;;;;5067545;28;20204;-64
2022/08/22 06:18:01;;;;;;;8.00;6.13;;;17.80;99.90;;;;;;5049285;28;20187;-63
2022/08/22 06:20:50;;;;;;;7.23;5.17;;;17.80;99.90;;;;;;5070469;28;20187;-64
2022/08/22 06:23:26;;;;;;;6.67;5.43;;;18.00;99.90;;;;;;5052112;28;20199;-62
2022/08/22 06:25:55;;;;;;;6.50;5.47;;;18.00;99.90;;;;;;5068810;28;20200;-62
2022/08/22 06:28:24;;;;;;;8.10;5.43;;;18.20;99.90;;;;;;5048092;28;20316;-64
2022/08/22 06:30:53;;;;;;;7.77;5.40;;;18.30;99.90;;;;;;5049808;28;20260;-62
2022/08/22 06:33:32;;;;;;;10.53;6.47;;;18.40;99.90;;;;;;5065594;28;20225;-62
2022/08/22 06:36:29;;;;;;;7.07;5.23;;;18.50;99.90;;;;;;5069713;28;20539;-62
2022/08/22 06:39:15;;;;;;;6.10;5.17;;;18.60;99.90;;;;;;5056905;28;20222;-63
2022/08/22 06:41:58;;;;;;;6.17;5.57;;;18.70;99.90;;;;;;5049894;28;20491;-63
2022/08/22 06:44:32;;;;;;;9.80;5.17;;;18.80;99.90;;;;;;5060755;28;20202;-63
2022/08/22 06:47:00;;;;;;;7.23;5.10;;;18.90;99.90;;;;;;5049535;28;20189;-63
2022/08/22 06:49:28;;;;;;;8.23;5.20;;;19.00;99.90;;;;;;5057487;28;20286;-65
2022/08/22 06:52:00;;;;;;;6.13;5.00;;;19.00;99.90;;;;;;5068912;28;20193;-65
2022/08/22 06:54:31;;;;;;;5.67;5.20;;;19.10;99.90;;;;;;5060710;28;20716;-65
2022/08/22 06:56:57;;;;;;;6.47;5.50;;;19.20;99.90;;;;;;5049296;28;20269;-64
2022/08/22 06:59:26;;;;;;;6.63;5.43;;;19.30;99.90;;;;;;5067103;28;20203;-65
2022/08/22 07:02:17;;;;;;;8.23;4.53;;;19.40;99.90;;;;;;5049416;28;20218;-64
2022/08/22 07:04:43;;;;;;;8.37;4.87;;;19.40;99.90;;;;;;5062273;28;20202;-65
2022/08/22 07:07:08;;;;;;;8.43;5.23;;;19.50;99.90;;;;;;5069287;28;20637;-64
2022/08/22 07:09:39;;;;;;;8.03;5.73;;;19.60;99.90;;;;;;5061419;28;20192;-64
2022/08/22 07:12:15;;;;;;;8.30;5.10;;;19.80;99.90;;;;;;5068996;28;20323;-64
2022/08/22 07:14:43;;;;;;;10.20;4.83;;;19.90;99.90;;;;;;5061646;28;20225;-64
2022/08/22 07:17:27;;;;;;;7.10;5.17;;;20.00;99.90;;;;;;5068819;28;20549;-63
2022/08/22 07:20:23;;;;;;;6.80;5.07;;;20.10;99.90;;;;;;5063196;28;20309;-63
2022/08/22 07:22:59;;;;;;;6.50;4.73;;;20.20;99.90;;;;;;5068794;28;20200;-63
2022/08/22 07:25:25;;;;;;;7.60;5.37;;;20.40;99.90;;;;;;5067944;28;20212;-62
2022/08/22 07:27:56;;;;;;;10.90;5.13;;;20.50;99.90;;;;;;5068752;28;20191;-63
2022/08/22 07:30:25;;;;;;;6.77;4.27;;;20.50;99.90;;;;;;5066735;28;20202;-63
2022/08/22 07:33:00;;;;;;;11.10;5.00;;;20.60;99.90;;;;;;5066070;28;20216;-62
2022/08/22 07:35:40;;;;;;;7.93;4.63;;;20.70;99.90;;;;;;5067395;28;20193;-63
2022/08/22 07:38:06;;;;;;;8.30;4.83;;;20.80;99.90;;;;;;5047059;28;20187;-64
2022/08/22 07:40:53;;;;;;;5.67;4.17;;;20.90;99.90;;;;;;5068870;28;20166;-63
2022/08/22 07:43:37;;;;;;;4.57;3.77;;;21.00;99.90;;;;;;5048954;28;20187;-63
2022/08/22 07:46:31;;;;;;;5.73;3.90;;;21.00;99.90;;;;;;5068461;28;20232;-63
2022/08/22 07:49:12;;;;;;;11.97;3.87;;;21.10;99.90;;;;;;5046661;28;20607;-63
2022/08/22 07:51:57;;;;;;;6.50;3.30;;;21.20;99.90;;;;;;5048684;28;20273;-63
2022/08/22 07:54:35;;;;;;;8.63;4.20;;;21.20;99.90;;;;;;5046520;28;20701;-63
2022/08/22 07:57:13;;;;;;;3.87;3.57;;;21.30;99.90;;;;;;5048303;28;20193;-63
2022/08/22 07:59:46;;;;;;;8.33;3.53;;;21.40;99.90;;;;;;5059320;28;20190;-64
2022/08/22 08:02:14;;;;;;;4.37;3.17;;;21.50;99.90;;;;;;5048198;28;20270;-63
2022/08/22 08:04:41;;;;;;;5.30;3.03;;;21.70;99.90;;;;;;5059270;28;20286;-64
2022/08/22 08:07:10;;;;;;;3.43;3.10;;;21.90;99.90;;;;;;5068012;28;20198;-64
2022/08/22 08:09:43;;;;;;;4.57;2.93;;;21.90;99.90;;;;;;5058786;28;20686;-63
2022/08/22 08:12:10;;;;;;;4.90;2.93;;;22.10;99.90;;;;;;5068394;28;20686;-63
2022/08/22 08:14:42;;;;;;;3.10;2.20;;;22.10;99.90;;;;;;5058779;28;20699;-62
2022/08/22 08:17:17;;;;;;;3.47;2.17;;;22.20;99.90;;;;;;5048080;28;20596;-62
2022/08/22 08:19:44;;;;;;;3.57;2.40;;;22.40;99.90;;;;;;5059127;28;20737;-64
2022/08/22 08:22:17;;;;;;;6.73;2.20;;;22.40;99.90;;;;;;5067740;28;20556;-63
2022/08/22 08:24:45;;;;;;;3.00;1.93;;;22.50;99.90;;;;;;5058718;28;20680;-65
2022/08/22 08:30:32;;;;;;;4.53;2.03;;;22.90;99.90;;;;;;5061348;28;20204;-65
2022/08/22 08:33:00;;;;;;;2.80;1.90;;;22.90;99.90;;;;;;5048445;28;20214;-64
2022/08/22 08:35:30;;;;;;;3.50;2.17;;;23.10;99.90;;;;;;5072006;28;20194;-67
2022/08/22 08:38:00;;;;;;;3.40;1.77;;;23.30;99.50;;;;;;5053396;28;20193;-65
2022/08/22 08:40:32;;;;;;;5.07;2.50;;;23.30;99.90;;;;;;5065658;28;20194;-66
2022/08/22 08:46:10;;;;;;;3.47;1.80;;;23.40;98.20;;;;;;5054760;28;20263;-68
2022/08/22 08:49:13;;;;;;;2.95;2.05;;;23.50;98.80;;;;;;5065442;28;21048;-66
2022/08/22 08:51:51;;;;;;;6.30;2.03;;;23.70;98.50;;;;;;5026557;28;20204;-66
2022/08/22 08:54:34;;;;;;;3.35;1.90;;;23.80;98.40;;;;;;5068942;28;20198;-66
2022/08/22 08:57:28;;;;;;;3.55;2.03;;;23.90;98.40;;;;;;5071393;28;20174;-65
2022/08/22 09:00:11;;;;;;;4.50;2.35;;;23.90;97.40;;;;;;5062904;28;20196;-66
2022/08/22 09:02:56;;;;;;;2.08;1.88;;;24.00;96.90;;;;;;5051953;28;20190;-65
2022/08/22 09:05:37;;;;;;;2.40;1.80;;;24.10;97.10;;;;;;5066925;28;20601;-67
2022/08/22 09:08:24;;;;;;;1.90;1.45;;;24.20;96.50;;;;;;5051965;28;20553;-66
2022/08/22 09:11:03;;;;;;;2.75;1.63;;;24.20;95.80;;;;;;5071234;28;20193;-65
2022/08/22 09:13:45;;;;;;;2.72;2.20;;;24.30;94.80;;;;;;5068959;28;20217;-73
2022/08/22 09:16:55;;;;;;;2.90;1.60;;;24.40;94.40;;;;;;5052605;28;20180;-76
2022/08/22 09:19:43;;;;;;;5.15;2.00;;;24.50;94.20;;;;;;5057583;28;20668;-64
2022/08/22 09:22:37;;;;;;;4.85;2.10;;;24.60;94.60;;;;;;5051061;28;20183;-65
2022/08/22 09:25:23;;;;;;;3.22;1.60;;;24.50;94.10;;;;;;5062866;28;20197;-67
2022/08/22 09:28:13;;;;;;;2.88;1.80;;;24.70;93.90;;;;;;5050914;28;20179;-65
2022/08/22 09:31:11;;;;;;;2.85;1.60;;;24.90;93.40;;;;;;5054793;28;20238;-66
2022/08/22 09:33:57;;;;;;;3.40;1.63;;;24.80;93.30;;;;;;5068707;28;20297;-65
2022/08/22 09:36:31;;;;;;;2.85;1.65;;;25.00;92.80;;;;;;5067305;28;20191;-64
2022/08/22 09:39:25;;;;;;;2.97;1.48;;;25.00;93.00;;;;;;5069485;28;20583;-64
2022/08/22 09:42:28;;;;;;;4.60;2.10;;;25.30;91.90;;;;;;5070405;28;20180;-66
2022/08/22 09:45:06;;;;;;;5.90;2.00;;;25.30;91.70;;;;;;5065571;28;20246;-66
2022/08/22 09:48:00;;;;;;;4.22;2.10;;;25.50;91.50;;;;;;5069967;28;20184;-74
2022/08/22 09:50:53;;;;;;;3.35;1.63;;;25.60;92.00;;;;;;5059990;28;20592;-68
2022/08/22 09:53:35;;;;;;;5.30;2.22;;;25.90;90.20;;;;;;5050831;28;20240;-68
2022/08/22 09:56:09;;;;;;;3.67;1.88;;;25.80;90.10;;;;;;5064683;28;20203;-65
2022/08/22 09:59:01;;;;;;;3.58;1.60;;;25.80;90.10;;;;;;5050976;28;20251;-65
2022/08/22 10:01:28;;;;;;;5.25;2.15;;;25.80;88.60;;;;;;5067184;28;20283;-63
2022/08/22 10:03:57;;;;;;;5.60;1.70;;;25.70;90.00;;;;;;5066971;28;20189;-66
2022/08/22 10:06:29;;;;;;;3.55;1.88;;;25.90;89.80;;;;;;5067276;28;20277;-66
2022/08/22 10:09:11;;;;;;;6.15;1.92;;;26.00;88.10;;;;;;5050134;28;20196;-65
2022/08/22 10:11:46;;;;;;;2.92;1.80;;;26.20;90.10;;;;;;5050444;28;20208;-77
2022/08/22 10:14:20;;;;;;;1.95;1.60;;;26.20;88.30;;;;;;5066831;28;20223;-65
2022/08/22 10:17:15;;;;;;;4.07;1.70;;;26.30;86.80;;;;;;5067530;28;20190;-65
2022/08/22 10:19:48;;;;;;;2.85;1.70;;;26.30;86.00;;;;;;5066207;28;20283;-66
2022/08/22 10:22:48;;;;;;;1.95;1.30;;;26.40;86.10;;;;;;5069709;28;20173;-66
2022/08/22 10:25:40;;;;;;;1.98;1.80;;;26.50;86.30;;;;;;5066461;28;20303;-67
2022/08/22 10:28:47;;;;;;;3.28;1.50;;;26.60;85.20;;;;;;5067250;28;20177;-68
2022/08/22 10:31:19;;;;;;;2.22;1.80;;;26.60;84.10;;;;;;5065939;28;20197;-67
2022/08/22 10:34:08;;;;;;;2.00;1.73;;;26.60;83.80;;;;;;5066993;28;20349;-66
2022/08/22 10:36:40;;;;;;;1.85;1.50;;;26.70;84.10;;;;;;5059899;28;20209;-67
2022/08/22 10:39:09;;;;;;;3.33;1.95;;;26.70;83.30;;;;;;5067569;28;20283;-67
2022/08/22 10:41:57;;;;;;;2.78;1.17;;;26.80;81.50;;;;;;5066456;28;20201;-67
2022/08/22 10:44:51;;;;;;;3.88;1.80;;;26.70;81.50;;;;;;5067556;28;20196;-67
2022/08/22 10:47:25;;;;;;;2.63;1.55;;;26.80;79.50;;;;;;5067060;28;20181;-67
2022/08/22 10:50:00;;;;;;;4.45;1.80;;;26.90;79.40;;;;;;5066945;28;20222;-66
2022/08/22 10:52:30;;;;;;;2.65;1.42;;;26.90;79.70;;;;;;5069423;28;20587;-66
2022/08/22 10:55:09;;;;;;;1.95;1.25;;;27.00;78.80;;;;;;5064522;28;20202;-68
2022/08/22 10:57:59;;;;;;;1.40;1.27;;;27.10;78.50;;;;;;5066980;28;20176;-65
2022/08/22 11:00:50;;;;;;;1.52;1.42;;;27.10;78.00;;;;;;5066116;28;20288;-65
2022/08/22 11:03:34;;;;;;;3.50;1.40;;;27.20;75.30;;;;;;5067982;28;20186;-67
2022/08/22 11:06:05;;;;;;;2.92;1.83;;;26.80;77.80;;;;;;5061823;28;20197;-65
2022/08/22 11:08:59;;;;;;;2.13;1.48;;;26.80;76.80;;;;;;5049275;28;20711;-65
2022/08/22 11:12:06;;;;;;;2.38;1.55;;;26.70;76.20;;;;;;5063101;28;20291;-65
2022/08/22 11:14:53;;;;;;;3.20;1.50;;;26.80;75.60;;;;;;5038472;28;20746;-65
2022/08/22 11:17:50;;;;;;;7.03;2.15;;;26.90;75.60;;;;;;5069332;28;20193;-65
2022/08/22 11:20:34;;;;;;;3.95;1.55;;;27.00;75.40;;;;;;5054631;28;20209;-66
2022/08/22 11:23:41;;;;;;;3.13;1.73;;;27.10;73.90;;;;;;5069480;28;20182;-64
2022/08/22 11:26:39;;;;;;;1.88;1.20;;;27.20;75.60;;;;;;5061374;28;20200;-66
2022/08/22 11:29:11;;;;;;;3.58;2.00;;;27.30;74.60;;;;;;5060852;28;20174;-68
2022/08/22 11:32:20;;;;;;;1.67;1.50;;;27.60;72.70;;;;;;5065168;28;20803;-69
2022/08/22 11:35:09;;;;;;;2.55;1.85;;;27.90;72.50;;;;;;4981374;28;20232;-69
2022/08/22 11:37:56;;;;;;;2.33;1.23;;;28.10;70.20;;;;;;5045630;28;20191;-69
2022/08/22 11:40:34;;;;;;;4.25;1.45;;;28.20;70.40;;;;;;5053833;28;20672;-66
2022/08/22 11:43:10;;;;;;;2.15;1.80;;;28.30;69.70;;;;;;5066283;28;20177;-68
2022/08/22 11:45:50;;;;;;;2.10;1.60;;;28.40;68.90;;;;;;5066289;28;20196;-67
2022/08/22 11:48:50;;;;;;;2.63;1.30;;;28.50;69.80;;;;;;5065684;28;20190;-67
2022/08/22 11:51:54;;;;;;;5.95;1.60;;;28.30;69.90;;;;;;5060876;28;20291;-67
2022/08/22 11:54:32;;;;;;;1.98;1.48;;;27.80;71.70;;;;;;5068520;28;20315;-67
2022/08/22 11:57:09;;;;;;;2.50;1.30;;;27.60;69.20;;;;;;5048663;28;20791;-67
2022/08/22 12:00:14;;;;;;;3.38;1.60;;;27.50;69.80;;;;;;5052457;28;20200;-66
2022/08/22 12:03:04;;;;;;;2.90;1.42;;;27.30;68.10;;;;;;5064535;28;20190;-68
2022/08/22 12:05:41;;;;;;;2.38;1.70;;;27.20;69.10;;;;;;5065008;28;20413;-66
2022/08/22 12:08:23;;;;;;;1.92;1.67;;;27.40;69.40;;;;;;5065167;28;20967;-68
2022/08/22 12:11:08;;;;;;;2.15;1.27;;;27.40;66.80;;;;;;5066249;28;20208;-65
2022/08/22 12:13:55;;;;;;;4.40;2.00;;;27.40;67.50;;;;;;5066096;28;20197;-66
2022/08/22 12:16:28;;;;;;;2.58;1.63;;;27.50;67.80;;;;;;5065652;28;20689;-67
2022/08/22 12:19:16;;;;;;;2.00;1.17;;;27.70;67.70;;;;;;5066027;28;20596;-68
2022/08/22 12:21:42;;;;;;;1.77;1.33;;;27.80;68.50;;;;;;5064415;28;20216;-69
2022/08/22 12:24:30;;;;;;;1.55;1.10;;;27.80;68.20;;;;;;5065079;28;20194;-69
2022/08/22 12:27:14;;;;;;;3.45;1.73;;;28.00;66.90;;;;;;5064900;28;20192;-67
2022/08/22 12:30:11;;;;;;;4.65;1.23;;;28.30;66.50;;;;;;5062928;28;20189;-68
2022/08/22 12:33:08;;;;;;;2.65;1.50;;;28.60;64.00;;;;;;5061866;28;20202;-68
2022/08/22 12:35:59;;;;;;;2.20;1.45;;;28.60;64.00;;;;;;5064212;28;20660;-67
2022/08/22 12:38:56;;;;;;;3.90;1.50;;;28.70;65.20;;;;;;5066041;28;20231;-78
2022/08/22 12:41:41;;;;;;;2.80;2.40;;;28.90;64.50;;;;;;5063510;28;20209;-67
2022/08/22 12:44:46;;;;;;;2.50;1.40;;;28.70;64.30;;;;;;5047965;28;20257;-67
2022/08/22 12:47:30;;;;;;;2.20;1.52;;;28.40;64.70;;;;;;5047760;28;20202;-67
2022/08/22 12:50:22;;;;;;;1.58;1.48;;;28.50;65.40;;;;;;5047608;28;20222;-79
2022/08/22 12:53:07;;;;;;;2.90;1.77;;;28.80;64.50;;;;;;5067977;28;20235;-67
2022/08/22 12:55:54;;;;;;;3.42;1.60;;;29.10;63.60;;;;;;5053724;28;20194;-67
2022/08/22 12:58:50;;;;;;;2.58;1.98;;;29.20;62.90;;;;;;5065695;28;20177;-68
2022/08/22 13:01:16;;;;;;;2.17;1.35;;;29.40;64.40;;;;;;5062983;28;20201;-69
2022/08/22 13:03:56;;;;;;;2.88;1.30;;;29.60;62.60;;;;;;5064873;28;20273;-67
2022/08/22 13:06:37;;;;;;;2.33;1.80;;;29.60;63.10;;;;;;5062748;28;20259;-67
2022/08/22 13:09:18;;;;;;;2.25;1.55;;;29.60;62.90;;;;;;5065795;28;20217;-69
2022/08/22 13:11:47;;;;;;;3.10;1.88;;;29.70;64.60;;;;;;5064699;28;20283;-67
2022/08/22 13:14:18;;;;;;;3.70;1.80;;;30.10;64.40;;;;;;5064076;28;20198;-67
2022/08/22 13:16:49;;;;;;;2.65;1.50;;;30.50;60.70;;;;;;5064230;28;20201;-66
2022/08/22 13:19:25;;;;;;;2.78;1.73;;;31.10;58.20;;;;;;5067561;28;20190;-66
2022/08/22 13:22:00;;;;;;;3.15;1.83;;;31.30;56.10;;;;;;5062820;28;20201;-66
2022/08/22 13:24:39;;;;;;;4.78;1.73;;;31.40;55.30;;;;;;5047511;28;20194;-67
2022/08/22 13:27:13;;;;;;;2.47;1.50;;;31.30;55.60;;;;;;5064251;28;20225;-67
2022/08/22 13:29:46;;;;;;;2.67;1.80;;;31.40;54.70;;;;;;5047636;28;20199;-67
2022/08/22 13:32:26;;;;;;;2.63;1.67;;;31.30;54.90;;;;;;5064303;28;20210;-67
2022/08/22 13:34:54;;;;;;;4.03;1.70;;;31.20;55.00;;;;;;5051153;28;21035;-67
2022/08/22 13:37:27;;;;;;;3.63;1.73;;;31.10;55.00;;;;;;5069837;28;20178;-67
2022/08/22 13:39:59;;;;;;;3.83;2.40;;;30.80;56.40;;;;;;5057679;28;20240;-66
2022/08/22 13:42:27;;;;;;;1.98;1.55;;;30.60;55.90;;;;;;5051802;28;20244;-67
2022/08/22 13:44:55;;;;;;;2.05;1.95;;;30.20;56.20;;;;;;5071355;28;20189;-66
2022/08/22 13:47:24;;;;;;;2.50;1.80;;;29.90;57.30;;;;;;5051445;28;20179;-66
2022/08/22 13:50:07;;;;;;;3.83;1.85;;;29.70;56.00;;;;;;5051314;28;20762;-67
2022/08/22 13:52:43;;;;;;;4.78;1.63;;;29.20;56.40;;;;;;5051520;28;20538;-66
2022/08/22 13:55:24;;;;;;;2.05;1.50;;;28.90;57.40;;;;;;5051187;28;20378;-66
2022/08/22 13:57:56;;;;;;;1.92;1.73;;;28.60;58.60;;;;;;5071451;28;20176;-66
2022/08/22 14:00:34;;;;;;;2.78;1.52;;;28.20;58.40;;;;;;5052972;28;20205;-67
2022/08/22 14:03:06;;;;;;;3.28;2.20;;;28.00;60.30;;;;;;5071085;28;20555;-66
2022/08/22 14:05:46;;;;;;;5.85;2.03;;;28.00;59.80;;;;;;5054285;28;20213;-67
2022/08/22 14:08:18;;;;;;;1.80;1.58;;;28.00;60.50;;;;;;5071067;28;20697;-67